PA8E-13 Weather Reports


time (UTC)temp
C
wind
direction
speed
KPH
gust
KPH
rain 1hr
cm
rain 24hr
cm
rain mn
cm
humidity
%
barometer
mb
20260503021812 14 139 3.2 8.0 0.00 0.76 0.69 91 1011.8
20260503020812 14 113 1.6 4.8 0.00 0.76 0.69 91 1011.8
20260503015816 14 113 0.0 3.2 0.00 0.76 0.69 91 1011.7
20260503014811 13 111 1.6 4.8 0.00 0.76 0.69 91 1011.8
20260503013828 13 88 1.6 4.8 0.00 0.76 0.69 91 1011.8
20260503012818 14 77 3.2 8.0 0.03 0.76 0.69 91 1011.7
20260503011811 13 109 1.6 8.0 0.03 0.76 0.69 91 1011.9
20260503010813 13 113 1.6 6.4 0.03 0.76 0.69 91 1011.8
20260503005812 13 82 3.2 9.7 0.03 0.76 0.69 91 1011.9
20260503004810 13 95 4.8 11.3 0.03 0.76 0.69 91 1012.0
20260503003916 13 106 4.8 16.1 0.03 0.76 0.69 91 1012.2
20260503002811 13 97 6.4 14.5 0.00 0.74 0.66 91 1012.2
20260503001810 13 89 4.8 11.3 0.00 0.74 0.66 90 1012.6
20260503000813 13 87 3.2 8.0 0.00 0.74 0.66 91 1012.5
20260502235812 13 76 3.2 9.7 0.03 0.74 0.66 91 1012.5
20260502234818 14 71 3.2 9.7 0.10 0.74 0.66 90 1012.6
20260502233812 14 76 4.8 9.7 0.28 0.74 0.66 90 1012.7
20260502232812 14 94 3.2 11.3 0.38 0.74 0.66 90 1012.9
20260502231813 14 97 1.6 6.4 0.48 0.74 0.66 90 1012.8
20260502230831 13 37 4.8 14.5 0.58 0.74 0.66 91 1012.6
20260502225842 14 32 4.8 9.7 0.71 0.71 0.64 90 1013.0
20260502224811 14 7 8.0 16.1 0.64 0.64 0.56 89 1013.3
20260502223810 15 40 3.2 9.7 0.46 0.46 0.38 85 1014.1
20260502222811 15 62 0.0 1.6 0.36 0.36 0.28 81 1014.4
20260502221811 15 270 3.2 8.0 0.25 0.25 0.18 78 1014.8
20260502220823 15 245 4.8 8.0 0.15 0.15 0.08 73 1015.1
20260502215812 16 225 11.3 20.9 0.00 0.00 0.00 62 1015.1
20260502214811 16 210 8.0 17.7 0.00 0.00 0.00 62 1014.4
20260502213832 16 342 3.2 9.7 0.00 0.00 0.00 62 1013.7
20260502212830 16 18 3.2 8.0 0.00 0.00 0.00 61 1013.6
20260502211811 16 62 4.8 16.1 0.00 0.00 0.00 60 1013.9
20260502210916 17 80 4.8 14.5 0.00 0.00 0.00 58 1013.7
20260502205812 17 28 4.8 12.9 0.00 0.00 0.00 57 1013.4
20260502204813 17 19 3.2 8.0 0.00 0.00 0.00 55 1013.6
20260502203813 17 7 4.8 11.3 0.00 0.00 0.00 55 1013.8
20260502202836 17 25 3.2 8.0 0.00 0.00 0.00 55 1013.9
20260502201818 17 21 3.2 6.4 0.00 0.00 0.00 56 1014.0
20260502200812 17 356 3.2 6.4 0.00 0.00 0.00 58 1014.1
20260502195831 17 13 3.2 8.0 0.00 0.00 0.00 58 1014.3
20260502194811 17 0 3.2 8.0 0.00 0.00 0.00 57 1014.3
20260502193811 17 21 4.8 11.3 0.00 0.00 0.00 56 1014.4
20260502192814 18 22 3.2 8.0 0.00 0.00 0.00 54 1014.4
20260502191811 18 358 1.6 4.8 0.00 0.00 0.00 51 1014.3
20260502190810 18 354 1.6 4.8 0.00 0.00 0.00 51 1014.3
20260502185813 18 360 4.8 8.0 0.00 0.00 0.00 50 1014.3
20260502184813 19 5 1.6 4.8 0.00 0.00 0.00 50 1014.4
20260502183823 19 341 3.2 8.0 0.00 0.00 0.00 48 1014.3
20260502182813 20 350 4.8 9.7 0.00 0.00 0.00 48 1014.3
20260502181812 20 328 4.8 11.3 0.00 0.00 0.00 48 1014.2
20260502180815 20 337 4.8 9.7 0.00 0.00 0.00 48 1014.2
20260502163811 22 274 4.8 9.7 0.00 0.00 0.00 47 1015.1
20260502162814 22 290 4.8 11.3 0.00 0.00 0.00 47 1015.2
20260502161851 22 280 4.8 11.3 0.00 0.00 0.00 49 1015.3
20260502160838 22 222 4.8 16.1 0.00 0.00 0.00 48 1015.3
20260502151811 22 205 4.8 14.5 0.00 0.00 0.00 51 1015.7
20260502150825 22 267 8.0 12.9 0.00 0.00 0.00 51 1015.8
20260502122831 21 208 8.0 19.3 0.00 0.00 0.00 59 1017.5
20260502121833 20 214 11.3 17.7 0.00 0.00 0.00 60 1017.6
20260502120810 21 217 8.0 16.1 0.00 0.00 0.00 58 1017.6
20260502115810 21 210 9.7 19.3 0.00 0.00 0.00 57 1017.6
20260502114810 21 205 9.7 19.3 0.00 0.00 0.00 58 1017.7
20260502113834 21 209 9.7 19.3 0.00 0.00 0.00 59 1017.8
20260502112812 20 217 8.0 16.1 0.00 0.00 0.00 61 1017.9
20260502111810 20 216 8.0 16.1 0.00 0.00 0.00 62 1017.9
20260502110813 20 215 8.0 17.7 0.00 0.00 0.00 62 1018.0
20260502105831 20 213 9.7 19.3 0.00 0.00 0.00 61 1018.0
20260502104810 20 209 6.4 14.5 0.00 0.00 0.00 62 1018.1
20260502103922 20 222 8.0 12.9 0.00 0.00 0.00 62 1018.1
20260502102821 20 246 4.8 14.5 0.00 0.00 0.00 63 1018.2
20260502101811 19 245 6.4 14.5 0.00 0.00 0.00 65 1018.3
20260502100818 19 213 8.0 16.1 0.00 0.00 0.00 64 1018.4
20260502090852 17 220 6.4 11.3 0.00 0.00 0.00 68 1018.6
20260502070926 15 124 0.0 3.2 0.00 0.00 0.00 57 1018.6
20260502065812 15 171 1.6 4.8 0.00 0.00 0.00 57 1018.7
20260502064833 14 204 0.0 1.6 0.00 0.00 0.00 57 1018.6
20260502063810 14 191 0.0 3.2 0.00 0.00 0.00 58 1018.7
20260502062811 13 179 3.2 6.4 0.00 0.00 0.00 59 1018.8
20260502061815 13 0.0 0.0 0.00 0.00 0.00 58 1018.6
20260502060810 13 0.0 0.0 0.00 0.00 0.00 58 1018.6
20260502055816 13 156 1.6 4.8 0.00 0.00 0.00 57 1018.7
20260502054810 13 178 4.8 8.0 0.00 0.00 0.00 56 1018.7
20260502053815 13 179 4.8 9.7 0.00 0.00 0.00 56 1018.7
20260502052814 12 151 0.0 4.8 0.00 0.00 0.00 58 1018.3
20260502051811 12 147 1.6 6.4 0.00 0.00 0.00 59 1018.3
20260502050832 12 125 0.0 4.8 0.00 0.00 0.00 60 1018.3
20260502045811 12 0.0 0.0 0.00 0.00 0.00 60 1018.5
20260502044818 12 120 0.0 3.2 0.00 0.00 0.00 60 1018.4
20260502043823 12 117 1.6 4.8 0.00 0.00 0.00 59 1018.5
20260502042813 12 109 1.6 4.8 0.00 0.00 0.00 58 1018.5
20260502041811 12 162 3.2 8.0 0.00 0.00 0.00 58 1018.5
20260502040816 12 96 0.0 1.6 0.00 0.00 0.00 57 1018.3
20260502035812 12 144 1.6 4.8 0.00 0.00 0.00 58 1018.4
20260502034811 12 123 3.2 6.4 0.00 0.00 0.00 57 1018.4
20260502033913 12 120 1.6 4.8 0.00 0.00 0.00 57 1018.6
20260502032811 12 114 1.6 4.8 0.00 0.00 0.00 57 1018.6
20260502031811 12 139 0.0 3.2 0.00 0.00 0.00 57 1018.7
20260502030811 12 119 1.6 6.4 0.00 0.00 0.00 56 1018.8
20260502025813 12 112 1.6 4.8 0.00 0.00 0.00 56 1018.9
20260502024813 13 139 1.6 4.8 0.00 0.00 0.00 55 1018.9
20260502023811 13 123 3.2 8.0 0.00 0.00 0.00 55 1019.0
20260502022811 13 126 1.6 4.8 0.00 0.00 0.00 54 1019.0